createdAt,value
2023-03-04T00:00:07.273Z,67.30
2023-03-04T00:02:33.934Z,68.30
2023-03-04T00:05:00.654Z,73.90
2023-03-04T00:07:27.371Z,71.65
2023-03-04T00:09:54.020Z,67.38
2023-03-04T00:12:20.711Z,71.05
2023-03-04T00:14:47.330Z,63.47
2023-03-04T00:17:14.013Z,67.13
2023-03-04T00:19:40.716Z,66.80
2023-03-04T00:22:07.705Z,68.82
2023-03-04T00:24:35.085Z,67.53
2023-03-04T00:27:01.871Z,66.37
2023-03-04T00:29:28.560Z,65.22
2023-03-04T00:31:55.347Z,62.28
2023-03-04T00:34:22.295Z,65.38
2023-03-04T00:36:49.076Z,81.38
2023-03-04T00:39:16.482Z,67.67
2023-03-04T00:41:43.140Z,67.70
2023-03-04T00:44:09.836Z,69.00
2023-03-04T00:46:36.562Z,70.00
2023-03-04T00:49:03.424Z,73.38
2023-03-04T00:51:30.072Z,96.60
2023-03-04T00:53:58.507Z,102.00
2023-03-04T00:56:26.375Z,103.68
2023-03-04T00:58:53.067Z,110.43
2023-03-04T01:01:19.864Z,216.35
2023-03-04T01:03:46.835Z,136.77
2023-03-04T01:06:13.800Z,106.95
2023-03-04T01:08:40.482Z,83.80
2023-03-04T01:11:07.429Z,81.07
2023-03-04T01:13:34.540Z,70.25
2023-03-04T01:16:01.575Z,76.33
2023-03-04T01:18:28.152Z,70.13
2023-03-04T01:20:55.139Z,70.28
2023-03-04T01:23:21.751Z,72.55
2023-03-04T01:25:48.625Z,71.65
2023-03-04T01:28:15.404Z,67.33
2023-03-04T01:30:42.196Z,70.72
2023-03-04T01:33:08.880Z,69.60
2023-03-04T01:35:35.488Z,69.78
2023-03-04T01:38:02.177Z,65.30
2023-03-04T01:40:28.859Z,71.00
2023-03-04T01:42:55.460Z,122.90
2023-03-04T01:45:22.317Z,98.40
2023-03-04T01:47:50.037Z,72.85
2023-03-04T01:50:21.833Z,68.00
2023-03-04T01:52:48.515Z,70.43
2023-03-04T01:55:17.281Z,67.93
2023-03-04T01:57:44.408Z,70.28
2023-03-04T02:00:32.511Z,70.43
2023-03-04T02:03:04.196Z,70.00
2023-03-04T02:05:31.404Z,72.20
2023-03-04T02:07:59.437Z,75.50
2023-03-04T02:10:26.322Z,70.55
2023-03-04T02:12:53.358Z,68.07
2023-03-04T02:15:20.683Z,72.38
2023-03-04T02:17:47.529Z,68.63
2023-03-04T02:20:30.877Z,72.78
2023-03-04T02:23:20.346Z,73.95
2023-03-04T02:26:12.889Z,71.72
2023-03-04T02:28:39.935Z,73.93
2023-03-04T02:31:06.722Z,70.50
2023-03-04T02:33:33.465Z,77.82
2023-03-04T02:36:00.111Z,69.20
2023-03-04T02:38:26.903Z,76.78
2023-03-04T02:40:56.009Z,71.82
2023-03-04T02:43:22.631Z,69.77
2023-03-04T02:45:50.860Z,72.30
2023-03-04T02:48:21.265Z,75.82
2023-03-04T02:50:51.568Z,71.90
2023-03-04T02:53:20.833Z,71.97
2023-03-04T02:55:48.466Z,75.17
2023-03-04T02:58:15.298Z,69.25
2023-03-04T03:00:41.912Z,73.10
2023-03-04T03:03:08.755Z,73.60
2023-03-04T03:05:36.846Z,71.05
2023-03-04T03:08:04.238Z,71.17
2023-03-04T03:10:31.038Z,69.95
2023-03-04T03:12:57.706Z,73.38
2023-03-04T03:15:25.040Z,72.80
2023-03-04T03:17:51.715Z,72.40
2023-03-04T03:20:19.229Z,73.77
2023-03-04T03:22:46.610Z,71.45
2023-03-04T03:25:14.598Z,75.80
2023-03-04T03:27:41.755Z,72.63
2023-03-04T03:30:11.005Z,102.45
2023-03-04T03:32:37.799Z,82.17
2023-03-04T03:35:04.946Z,77.13
2023-03-04T03:37:31.674Z,77.00
2023-03-04T03:39:58.339Z,75.35
2023-03-04T03:42:25.126Z,77.22
2023-03-04T03:44:51.740Z,74.00
2023-03-04T03:47:18.400Z,73.20
2023-03-04T03:49:45.088Z,76.97
2023-03-04T03:52:11.993Z,75.78
2023-03-04T03:54:38.677Z,76.20
2023-03-04T03:57:05.397Z,75.83
2023-03-04T03:59:32.114Z,77.00
2023-03-04T04:01:58.878Z,78.50
2023-03-04T04:04:25.525Z,74.45
2023-03-04T04:06:52.143Z,73.00
2023-03-04T04:09:19.047Z,74.50
2023-03-04T04:11:45.822Z,76.65
2023-03-04T04:14:14.465Z,74.13
2023-03-04T04:16:41.436Z,76.50
2023-03-04T04:19:08.245Z,71.80
2023-03-04T04:21:34.842Z,70.87
2023-03-04T04:24:01.499Z,73.93
2023-03-04T04:26:28.279Z,71.55
2023-03-04T04:28:54.877Z,76.78
2023-03-04T04:31:21.489Z,70.63
2023-03-04T04:33:48.246Z,76.43
2023-03-04T04:36:16.414Z,75.40
2023-03-04T04:38:43.179Z,74.18
2023-03-04T04:41:19.438Z,74.45
2023-03-04T04:43:46.281Z,76.82
2023-03-04T04:46:13.108Z,74.83
2023-03-04T04:48:39.866Z,83.45
2023-03-04T04:51:06.696Z,86.03
2023-03-04T04:53:33.355Z,87.55
2023-03-04T04:56:00.488Z,88.15
2023-03-04T04:58:27.154Z,84.33
2023-03-04T05:00:56.999Z,87.50
2023-03-04T05:03:23.831Z,85.18
2023-03-04T05:05:50.431Z,90.03
2023-03-04T05:08:17.098Z,96.38
2023-03-04T05:10:43.787Z,99.63
2023-03-04T05:13:10.368Z,99.50
2023-03-04T05:15:38.615Z,87.95
2023-03-04T05:18:05.504Z,90.70
2023-03-04T05:20:32.180Z,86.20
2023-03-04T05:22:59.245Z,90.27
2023-03-04T05:25:25.965Z,85.15
2023-03-04T05:27:52.642Z,84.75
2023-03-04T05:30:19.455Z,81.78
2023-03-04T05:32:46.149Z,85.53
2023-03-04T05:35:13.934Z,82.13
2023-03-04T05:37:40.628Z,84.05
2023-03-04T05:40:07.938Z,79.50
2023-03-04T05:42:34.641Z,78.85
2023-03-04T05:45:01.284Z,77.70
2023-03-04T05:47:28.001Z,79.07
2023-03-04T05:49:54.725Z,76.28
2023-03-04T05:52:21.410Z,79.78
2023-03-04T05:54:48.265Z,74.18
2023-03-04T05:57:14.912Z,75.25
2023-03-04T05:59:41.630Z,75.33
2023-03-04T06:02:08.277Z,76.13
2023-03-04T06:04:35.063Z,78.05
2023-03-04T06:07:01.765Z,74.60
2023-03-04T06:09:29.351Z,79.75
2023-03-04T06:11:56.065Z,80.37
2023-03-04T06:14:22.842Z,79.85
2023-03-04T06:16:49.621Z,79.60
2023-03-04T06:19:16.373Z,77.43
2023-03-04T06:21:43.088Z,73.15
2023-03-04T06:24:09.738Z,74.43
2023-03-04T06:26:36.421Z,79.97
2023-03-04T06:29:04.216Z,76.75
2023-03-04T06:31:30.922Z,75.05
2023-03-04T06:33:57.712Z,84.25
2023-03-04T06:36:24.398Z,80.83
2023-03-04T06:38:51.122Z,75.65
2023-03-04T06:41:17.817Z,75.60
2023-03-04T06:43:44.454Z,74.72
2023-03-04T06:46:11.123Z,77.78
2023-03-04T06:48:37.850Z,84.43
2023-03-04T06:51:09.569Z,86.25
2023-03-04T06:53:37.202Z,72.18
2023-03-04T06:56:04.389Z,79.30
2023-03-04T06:58:31.163Z,77.00
2023-03-04T07:00:57.825Z,79.03
2023-03-04T07:03:24.530Z,83.43
2023-03-04T07:05:51.109Z,81.78
2023-03-04T07:08:17.741Z,82.28
2023-03-04T07:10:44.455Z,76.25
2023-03-04T07:13:11.105Z,80.90
2023-03-04T07:15:38.201Z,86.35
2023-03-04T07:18:04.872Z,81.57
2023-03-04T07:20:31.884Z,78.47
2023-03-04T07:22:58.552Z,83.65
2023-03-04T07:25:25.317Z,72.57
2023-03-04T07:27:51.970Z,79.20
2023-03-04T07:30:18.786Z,81.07
2023-03-04T07:32:45.430Z,77.18
2023-03-04T07:35:12.125Z,73.30
2023-03-04T07:37:40.268Z,77.67
2023-03-04T07:40:10.874Z,73.22
2023-03-04T07:42:37.923Z,76.35
2023-03-04T07:45:06.347Z,75.00
2023-03-04T07:47:32.972Z,73.32
2023-03-04T07:49:59.688Z,79.20
2023-03-04T07:52:26.414Z,72.95
2023-03-04T07:54:53.102Z,70.22
2023-03-04T07:57:19.748Z,67.22
2023-03-04T07:59:46.479Z,70.70
2023-03-04T08:02:13.369Z,68.13
2023-03-04T08:04:40.036Z,63.58
2023-03-04T08:07:06.757Z,62.33
2023-03-04T08:09:33.417Z,58.20
2023-03-04T08:12:00.120Z,68.03
2023-03-04T08:14:26.795Z,57.80
2023-03-04T08:16:53.467Z,58.42
2023-03-04T08:19:20.071Z,59.17
2023-03-04T08:21:46.665Z,58.20
2023-03-04T08:24:13.803Z,60.47
2023-03-04T08:26:43.711Z,59.60
2023-03-04T08:29:16.553Z,57.92
2023-03-04T08:31:48.590Z,60.05
2023-03-04T08:34:16.488Z,57.42
2023-03-04T08:36:43.211Z,59.00
2023-03-04T08:39:12.853Z,59.93
2023-03-04T08:41:39.680Z,59.78
2023-03-04T08:44:08.211Z,61.60
2023-03-04T08:46:34.888Z,60.58
2023-03-04T08:49:01.526Z,61.20
2023-03-04T08:51:28.274Z,59.93
2023-03-04T08:53:54.958Z,63.85
2023-03-04T08:56:21.625Z,60.33
2023-03-04T08:58:48.337Z,62.10
2023-03-04T09:01:15.949Z,60.97
2023-03-04T09:03:43.112Z,59.57
2023-03-04T09:06:12.023Z,58.72
2023-03-04T09:08:38.676Z,63.88
2023-03-04T09:11:05.774Z,63.60
2023-03-04T09:13:32.584Z,65.95
2023-03-04T09:16:00.186Z,64.87
2023-03-04T09:18:28.206Z,66.57
2023-03-04T09:20:55.253Z,67.63
2023-03-04T09:23:22.633Z,71.00
2023-03-04T09:25:49.814Z,60.42
2023-03-04T09:28:18.496Z,65.53
2023-03-04T09:30:45.545Z,67.15
2023-03-04T09:33:13.666Z,74.63
2023-03-04T09:35:40.680Z,71.05
2023-03-04T09:38:07.864Z,72.97
2023-03-04T09:40:48.169Z,72.73
2023-03-04T09:43:23.618Z,67.90
2023-03-04T09:45:55.298Z,69.60
2023-03-04T09:48:26.798Z,69.80
2023-03-04T09:51:21.240Z,74.57
2023-03-04T09:54:02.809Z,72.50
2023-03-04T09:56:37.546Z,71.70
2023-03-04T09:59:11.563Z,67.95
2023-03-04T10:01:52.377Z,59.85
2023-03-04T10:04:42.189Z,70.28
2023-03-04T10:07:21.030Z,70.03
2023-03-04T10:10:14.333Z,70.20
2023-03-04T10:12:46.878Z,62.42
2023-03-04T10:15:42.333Z,65.53
2023-03-04T10:18:25.478Z,66.75
2023-03-04T10:21:21.537Z,64.53
2023-03-04T10:23:49.201Z,64.28
2023-03-04T10:26:20.824Z,68.00
2023-03-04T10:28:48.988Z,60.03
2023-03-04T10:31:34.288Z,64.10
2023-03-04T10:34:01.058Z,63.13
2023-03-04T10:36:30.787Z,63.90
2023-03-04T10:39:02.414Z,62.45
2023-03-04T10:41:31.151Z,57.58
2023-03-04T10:44:14.791Z,59.75
2023-03-04T10:46:47.130Z,60.27
2023-03-04T10:49:19.205Z,61.65
2023-03-04T10:52:03.611Z,61.53
2023-03-04T10:54:45.999Z,55.33
2023-03-04T10:57:17.119Z,52.88
2023-03-04T10:59:46.284Z,55.00
2023-03-04T11:02:29.749Z,53.67
2023-03-04T11:05:14.727Z,52.85
2023-03-04T11:07:55.899Z,54.47
2023-03-04T11:10:43.074Z,65.32
2023-03-04T11:13:23.151Z,47.47
2023-03-04T11:15:58.172Z,54.20
2023-03-04T11:18:47.359Z,59.03
2023-03-04T11:21:19.620Z,63.35
2023-03-04T11:23:58.798Z,57.88
2023-03-04T11:26:39.321Z,81.37
2023-03-04T11:29:15.793Z,114.15
2023-03-04T11:32:00.647Z,60.65
2023-03-04T11:34:31.930Z,54.75
2023-03-04T11:37:41.049Z,51.00
2023-03-04T11:40:13.807Z,54.43
2023-03-04T11:42:54.321Z,54.33
2023-03-04T11:45:49.213Z,52.63
2023-03-04T11:48:34.344Z,46.40
2023-03-04T11:51:13.011Z,48.65
2023-03-04T11:53:55.530Z,45.07
2023-03-04T11:56:30.981Z,45.83
2023-03-04T11:59:22.374Z,40.35
2023-03-04T12:02:10.698Z,39.28
2023-03-04T12:04:46.965Z,43.97
2023-03-04T12:07:13.622Z,42.40
2023-03-04T12:09:52.242Z,44.40
2023-03-04T12:12:47.092Z,41.08
2023-03-04T12:15:33.328Z,45.15
2023-03-04T12:18:19.251Z,40.05
2023-03-04T12:21:10.215Z,33.90
2023-03-04T12:24:04.437Z,33.92
2023-03-04T12:26:54.790Z,38.67
2023-03-04T12:29:47.622Z,38.63
2023-03-04T12:32:25.456Z,38.35
2023-03-04T12:35:49.119Z,43.03
2023-03-04T12:38:57.731Z,34.28
2023-03-04T12:42:02.678Z,29.38
2023-03-04T12:44:34.590Z,31.45
2023-03-04T12:47:07.017Z,30.75
2023-03-04T12:50:24.294Z,28.80
2023-03-04T12:53:10.407Z,44.75
2023-03-04T12:55:40.568Z,30.88
2023-03-04T12:58:16.309Z,33.42
2023-03-04T13:01:15.848Z,29.17
2023-03-04T13:03:56.292Z,30.57
2023-03-04T13:06:25.685Z,32.25
2023-03-04T13:09:32.064Z,31.60
2023-03-04T13:12:23.939Z,33.10
2023-03-04T13:15:08.681Z,32.28
2023-03-04T13:17:51.748Z,32.13
2023-03-04T13:20:30.214Z,33.63
2023-03-04T13:23:23.198Z,32.35
2023-03-04T13:26:16.719Z,32.72
2023-03-04T13:28:43.657Z,32.03
2023-03-04T13:31:16.832Z,32.50
2023-03-04T13:33:52.231Z,40.05
2023-03-04T13:36:52.435Z,34.10
2023-03-04T13:39:18.996Z,33.28
2023-03-04T13:41:51.243Z,34.45
2023-03-04T13:44:34.898Z,35.80
2023-03-04T13:47:14.474Z,35.75
2023-03-04T13:49:41.259Z,33.20
2023-03-04T13:52:37.851Z,34.13
2023-03-04T13:55:32.188Z,37.28
2023-03-04T13:57:58.819Z,33.83
2023-03-04T14:00:26.294Z,35.65
2023-03-04T14:02:52.972Z,37.03
2023-03-04T14:05:19.778Z,32.58
2023-03-04T14:07:46.627Z,34.08
2023-03-04T14:10:13.878Z,33.53
2023-03-04T14:12:45.906Z,35.92
2023-03-04T14:15:32.139Z,36.25
2023-03-04T14:18:01.067Z,32.25
2023-03-04T14:20:33.925Z,31.08
2023-03-04T14:23:02.601Z,30.90
2023-03-04T14:25:32.316Z,31.42
2023-03-04T14:28:25.174Z,31.08
2023-03-04T14:30:55.163Z,31.10
2023-03-04T14:33:29.624Z,29.92
2023-03-04T14:36:02.466Z,31.17
2023-03-04T14:38:34.853Z,33.00
2023-03-04T14:41:27.506Z,34.53
2023-03-04T14:44:08.727Z,35.05
2023-03-04T14:46:43.101Z,36.47
2023-03-04T14:49:14.550Z,32.17
2023-03-04T14:51:50.650Z,34.75
2023-03-04T14:54:40.540Z,37.03
2023-03-04T14:57:21.074Z,36.80
2023-03-04T14:59:47.929Z,36.65
2023-03-04T15:02:41.134Z,36.33
2023-03-04T15:05:32.335Z,40.72
2023-03-04T15:08:05.102Z,37.30
2023-03-04T15:10:37.737Z,38.75
2023-03-04T15:13:09.432Z,37.75
2023-03-04T15:15:44.831Z,37.00
2023-03-04T15:18:26.317Z,38.05
2023-03-04T15:20:57.637Z,38.53
2023-03-04T15:23:25.246Z,39.38
2023-03-04T15:25:54.546Z,40.13
2023-03-04T15:28:22.051Z,37.60
2023-03-04T15:30:49.355Z,36.47
2023-03-04T15:33:16.159Z,36.65
2023-03-04T15:35:51.475Z,35.63
2023-03-04T15:38:18.315Z,36.75
2023-03-04T15:40:45.402Z,37.33
2023-03-04T15:43:18.827Z,34.30
2023-03-04T15:45:46.730Z,38.13
2023-03-04T15:48:15.012Z,36.63
2023-03-04T15:51:07.094Z,41.13
2023-03-04T15:53:36.715Z,40.90
2023-03-04T15:56:04.934Z,37.47
2023-03-04T15:58:34.832Z,37.92
2023-03-04T16:01:02.049Z,35.88
2023-03-04T16:03:28.875Z,35.72
2023-03-04T16:05:56.760Z,43.20
2023-03-04T16:08:27.224Z,38.22
2023-03-04T16:10:54.699Z,56.67
2023-03-04T16:13:23.135Z,43.20
2023-03-04T16:15:50.261Z,40.58
2023-03-04T16:18:17.038Z,41.83
2023-03-04T16:20:47.509Z,41.42
2023-03-04T16:23:17.414Z,40.45
2023-03-04T16:25:46.018Z,42.10
2023-03-04T16:28:13.064Z,38.33
2023-03-04T16:30:40.791Z,43.90
2023-03-04T16:33:07.662Z,42.10
2023-03-04T16:35:36.870Z,39.95
2023-03-04T16:38:07.301Z,41.90
2023-03-04T16:40:34.084Z,41.30
2023-03-04T16:43:00.738Z,39.07
2023-03-04T16:45:32.567Z,42.15
2023-03-04T16:47:59.237Z,43.33
2023-03-04T16:50:27.426Z,42.33
2023-03-04T16:52:55.215Z,45.17
2023-03-04T16:55:30.342Z,44.27
2023-03-04T16:58:00.589Z,44.90
2023-03-04T17:00:29.140Z,44.20
2023-03-04T17:03:00.832Z,44.42
2023-03-04T17:05:31.121Z,42.35
2023-03-04T17:07:58.336Z,45.40
2023-03-04T17:10:25.197Z,43.28
2023-03-04T17:12:52.286Z,43.47
2023-03-04T17:15:19.401Z,43.30
2023-03-04T17:17:46.083Z,50.45
2023-03-04T17:20:17.774Z,57.03
2023-03-04T17:22:44.448Z,56.75
2023-03-04T17:25:11.782Z,44.90
2023-03-04T17:27:38.734Z,71.65
2023-03-04T17:30:06.890Z,49.97
2023-03-04T17:32:33.719Z,45.70
2023-03-04T17:35:01.037Z,48.08
2023-03-04T17:37:27.783Z,49.28
2023-03-04T17:39:54.481Z,59.60
2023-03-04T17:42:21.334Z,61.47
2023-03-04T17:44:48.251Z,58.67
2023-03-04T17:47:15.894Z,52.35
2023-03-04T17:49:42.717Z,68.70
2023-03-04T17:52:10.878Z,51.97
2023-03-04T17:54:38.068Z,51.38
2023-03-04T17:57:05.414Z,48.20
2023-03-04T17:59:32.300Z,57.50
2023-03-04T18:01:59.016Z,53.65
2023-03-04T18:04:25.739Z,67.65
2023-03-04T18:06:52.392Z,49.50
2023-03-04T18:09:19.075Z,50.40
2023-03-04T18:11:45.743Z,52.45
2023-03-04T18:14:12.840Z,51.83
2023-03-04T18:16:40.472Z,51.65
2023-03-04T18:19:09.408Z,55.20
2023-03-04T18:21:36.099Z,61.87
2023-03-04T18:24:02.802Z,56.42
2023-03-04T18:26:29.499Z,59.08
2023-03-04T18:28:56.625Z,53.53
2023-03-04T18:31:29.573Z,55.75
2023-03-04T18:34:00.253Z,59.60
2023-03-04T18:36:26.968Z,60.35
2023-03-04T18:38:53.735Z,58.10
2023-03-04T18:41:20.513Z,60.13
2023-03-04T18:43:47.182Z,54.42
2023-03-04T18:46:16.883Z,62.83
2023-03-04T18:48:50.250Z,62.13
2023-03-04T18:51:16.980Z,59.15
2023-03-04T18:53:43.640Z,64.97
2023-03-04T18:56:13.634Z,58.00
2023-03-04T18:58:43.243Z,61.83
2023-03-04T19:01:11.884Z,55.80
2023-03-04T19:03:39.980Z,60.42
2023-03-04T19:06:07.627Z,54.20
2023-03-04T19:08:35.394Z,54.22
2023-03-04T19:11:02.183Z,66.00
2023-03-04T19:13:30.695Z,61.33
2023-03-04T19:15:57.407Z,56.58
2023-03-04T19:18:24.257Z,59.72
2023-03-04T19:20:50.981Z,62.17
2023-03-04T19:23:18.102Z,59.23
2023-03-04T19:25:44.982Z,60.15
2023-03-04T19:28:12.283Z,56.67
2023-03-04T19:30:40.929Z,66.13
2023-03-04T19:33:08.272Z,66.40
2023-03-04T19:35:39.612Z,61.70
2023-03-04T19:38:06.240Z,63.80
2023-03-04T19:40:34.276Z,71.22
2023-03-04T19:43:00.923Z,66.47
2023-03-04T19:45:27.530Z,66.13
2023-03-04T19:47:54.189Z,63.93
2023-03-04T19:50:20.921Z,61.28
2023-03-04T19:52:47.580Z,66.60
2023-03-04T19:55:14.244Z,63.97
2023-03-04T19:57:42.355Z,64.88
2023-03-04T20:00:11.532Z,63.07
2023-03-04T20:02:39.000Z,64.80
2023-03-04T20:05:06.799Z,65.57
2023-03-04T20:07:33.562Z,71.45
2023-03-04T20:10:00.321Z,64.75
2023-03-04T20:12:27.136Z,64.53
2023-03-04T20:14:53.978Z,59.65
2023-03-04T20:17:20.677Z,67.68
2023-03-04T20:19:47.478Z,59.60
2023-03-04T20:22:14.275Z,72.45
2023-03-04T20:24:40.954Z,63.80
2023-03-04T20:27:07.579Z,60.92
2023-03-04T20:29:34.270Z,62.38
2023-03-04T20:32:01.438Z,58.65
2023-03-04T20:34:28.118Z,63.50
2023-03-04T20:36:54.843Z,63.10
2023-03-04T20:39:29.036Z,59.13
2023-03-04T20:41:58.102Z,60.72
2023-03-04T20:44:24.934Z,62.15
2023-03-04T20:46:52.351Z,70.53
2023-03-04T20:49:23.508Z,71.70
2023-03-04T20:51:54.865Z,72.95
2023-03-04T20:54:21.766Z,64.35
2023-03-04T20:56:49.151Z,60.35
2023-03-04T20:59:16.028Z,60.00
2023-03-04T21:01:44.654Z,56.10
2023-03-04T21:04:11.798Z,69.68
2023-03-04T21:06:39.486Z,65.22
2023-03-04T21:09:13.232Z,61.25
2023-03-04T21:11:40.975Z,64.28
2023-03-04T21:14:22.976Z,61.63
2023-03-04T21:16:51.923Z,60.92
2023-03-04T21:19:24.690Z,60.05
2023-03-04T21:21:52.115Z,62.33
2023-03-04T21:24:22.168Z,63.00
2023-03-04T21:26:49.657Z,61.60
2023-03-04T21:29:19.222Z,55.50
2023-03-04T21:31:52.862Z,54.85
2023-03-04T21:34:28.505Z,63.63
2023-03-04T21:36:55.167Z,54.63
2023-03-04T21:39:24.477Z,56.20
2023-03-04T21:41:51.830Z,55.55
2023-03-04T21:44:28.026Z,56.30
2023-03-04T21:46:59.853Z,50.55
2023-03-04T21:49:27.311Z,52.75
2023-03-04T21:51:53.994Z,54.33
2023-03-04T21:54:20.836Z,55.05
2023-03-04T21:56:47.701Z,58.20
2023-03-04T21:59:15.087Z,55.75
2023-03-04T22:01:42.043Z,57.40
2023-03-04T22:04:09.722Z,57.67
2023-03-04T22:06:36.537Z,54.53
2023-03-04T22:09:04.532Z,54.15
2023-03-04T22:11:32.108Z,54.75
2023-03-04T22:14:01.435Z,60.67
2023-03-04T22:16:28.582Z,61.23
2023-03-04T22:18:55.242Z,60.90
2023-03-04T22:21:22.682Z,60.40
2023-03-04T22:23:49.373Z,57.53
2023-03-04T22:26:26.762Z,56.90
2023-03-04T22:28:53.419Z,57.70
2023-03-04T22:31:30.142Z,57.33
2023-03-04T22:34:02.766Z,57.03
2023-03-04T22:36:30.681Z,56.30
2023-03-04T22:38:57.640Z,58.63
2023-03-04T22:41:24.992Z,62.00
2023-03-04T22:43:52.031Z,62.90
2023-03-04T22:46:22.526Z,63.45
2023-03-04T22:48:49.937Z,61.15
2023-03-04T22:51:17.417Z,61.00
2023-03-04T22:53:44.467Z,58.07
2023-03-04T22:56:13.826Z,51.22
2023-03-04T22:58:41.488Z,48.80
2023-03-04T23:01:09.519Z,49.05
2023-03-04T23:03:37.738Z,49.40
2023-03-04T23:06:11.094Z,54.27
2023-03-04T23:08:39.279Z,51.08
2023-03-04T23:11:15.968Z,51.47
2023-03-04T23:13:42.696Z,51.15
2023-03-04T23:16:11.418Z,48.80
2023-03-04T23:18:39.549Z,54.17
2023-03-04T23:21:21.906Z,63.45
2023-03-04T23:23:49.288Z,56.08
2023-03-04T23:26:24.640Z,51.30
2023-03-04T23:28:51.564Z,58.83
2023-03-04T23:31:19.011Z,60.03
2023-03-04T23:33:47.601Z,60.70
2023-03-04T23:36:16.984Z,59.65
2023-03-04T23:38:45.592Z,58.78
2023-03-04T23:41:21.064Z,57.22
2023-03-04T23:43:48.396Z,61.50
2023-03-04T23:46:15.778Z,64.28
2023-03-04T23:48:45.708Z,55.92
2023-03-04T23:51:14.671Z,50.65
2023-03-04T23:53:41.662Z,46.83
2023-03-04T23:56:13.892Z,42.80
2023-03-04T23:58:42.307Z,44.60
